Time,TemperatureF,DewpointF,PressureIn,WindDirection,WindDirectionDegrees,WindSpeedMPH,WindSpeedGustMPH,Humidity,HourlyPrecipIn,Conditions,Clouds,dailyrainin,SoftwareType,DateUTC
2013-04-15 00:01:00,51.3,33.8,29.57,South,169,11.4,11.9,51,0.00,,---,0.00,VWS V12.08,2013-04-15 05:01:00,
2013-04-15 00:06:00,51.6,33.1,29.57,SE,140,8.3,13.2,49,0.00,,---,0.00,VWS V12.08,2013-04-15 05:06:00,
2013-04-15 00:11:00,52.5,32.3,29.54,South,172,10.5,15.0,46,0.00,,---,0.00,VWS V12.08,2013-04-15 05:11:00,
2013-04-15 00:16:00,52.5,32.3,29.54,South,175,13.2,15.4,46,0.00,,---,0.00,VWS V12.08,2013-04-15 05:16:00,
2013-04-15 00:21:00,53.1,32.3,29.54,SSE,148,8.3,15.4,45,0.00,,---,0.00,VWS V12.08,2013-04-15 05:21:00,
2013-04-15 00:26:00,53.2,31.9,29.54,South,173,7.2,15.4,44,0.00,,---,0.00,VWS V12.08,2013-04-15 05:26:00,
2013-04-15 00:31:00,53.8,31.8,29.54,South,173,7.6,15.4,43,0.00,,---,0.00,VWS V12.08,2013-04-15 05:31:00,
2013-04-15 00:36:00,53.6,31.7,29.54,WSW,239,16.3,17.9,43,0.00,,---,0.00,VWS V12.08,2013-04-15 05:36:00,
2013-04-15 00:42:00,53.1,31.7,29.60,WSW,252,11.0,17.9,44,0.00,,---,0.00,VWS V12.08,2013-04-15 05:42:00,
2013-04-15 00:47:00,52.5,31.8,29.60,WSW,242,9.6,9.6,45,0.00,,---,0.00,VWS V12.08,2013-04-15 05:47:00,
2013-04-15 00:51:00,51.8,31.7,29.60,SW,214,5.8,12.3,46,0.00,,---,0.00,VWS V12.08,2013-04-15 05:51:00,
2013-04-15 00:57:00,51.4,35.4,29.60,WSW,241,9.2,12.3,54,0.00,,---,0.00,VWS V12.08,2013-04-15 05:57:00,
2013-04-15 01:02:00,50.9,36.2,29.60,WSW,257,7.6,8.7,57,0.00,,---,0.00,VWS V12.08,2013-04-15 06:02:00,
2013-04-15 01:07:00,50.4,37.8,29.60,West,263,5.4,10.1,62,0.00,,---,0.00,VWS V12.08,2013-04-15 06:07:00,
2013-04-15 01:12:00,50.0,38.7,29.63,West,262,7.6,10.1,65,0.00,,---,0.00,VWS V12.08,2013-04-15 06:12:00,
2013-04-15 01:17:00,49.5,39.7,29.63,WSW,242,7.6,8.7,69,0.00,,---,0.00,VWS V12.08,2013-04-15 06:17:00,
2013-04-15 01:22:00,48.9,40.3,29.63,WSW,257,2.7,8.7,72,0.00,,---,0.00,VWS V12.08,2013-04-15 06:22:00,
2013-04-15 01:28:00,48.7,41.5,29.63,WSW,245,5.4,8.7,76,0.00,,---,0.00,VWS V12.08,2013-04-15 06:28:00,
2013-04-15 01:33:00,48.4,41.5,29.63,WSW,238,2.7,2.7,77,0.00,,---,0.00,VWS V12.08,2013-04-15 06:33:00,
2013-04-15 01:38:00,48.0,41.8,29.63,WSW,255,5.4,8.1,79,0.00,,---,0.00,VWS V12.08,2013-04-15 06:38:00,
2013-04-15 01:43:00,47.8,42.0,29.63,SW,232,4.0,8.1,80,0.00,,---,0.00,VWS V12.08,2013-04-15 06:43:00,
2013-04-15 01:48:00,47.7,41.8,29.63,SSW,210,2.7,3.1,80,0.00,,---,0.00,VWS V12.08,2013-04-15 06:48:00,
2013-04-15 01:53:00,47.5,42.0,29.66,WSW,237,3.1,5.4,81,0.00,,---,0.00,VWS V12.08,2013-04-15 06:53:00,
2013-04-15 01:58:00,47.5,42.3,29.66,WNW,288,4.0,5.4,82,0.00,,---,0.00,VWS V12.08,2013-04-15 06:58:00,
2013-04-15 02:03:00,47.5,42.6,29.66,WSW,257,3.6,3.6,83,0.00,,---,0.00,VWS V12.08,2013-04-15 07:03:00,
2013-04-15 02:41:00,47.3,43.9,29.63,SSW,208,2.2,4.9,88,0.00,,---,0.00,VWS V12.08,2013-04-15 07:41:00,
2013-04-15 02:42:00,47.3,43.9,29.63,ESE,112,0.0,4.9,88,0.00,,---,0.00,VWS V12.08,2013-04-15 07:42:00,
2013-04-15 02:47:00,47.1,43.8,29.63,SSE,166,0.0,0.0,88,0.00,,---,0.00,VWS V12.08,2013-04-15 07:47:00,
2013-04-15 02:48:00,47.1,43.8,29.63,SSE,166,0.0,0.0,88,0.00,,---,0.00,VWS V12.08,2013-04-15 07:48:00,
2013-04-15 02:51:00,47.1,44.0,29.63,SSE,167,0.0,0.0,89,0.00,,---,0.00,VWS V12.08,2013-04-15 07:51:00,
2013-04-15 02:56:00,47.1,44.0,29.63,SSE,166,0.0,0.0,89,0.00,,---,0.00,VWS V12.08,2013-04-15 07:56:00,
2013-04-15 03:01:00,47.1,44.0,29.63,SSE,166,0.0,0.0,89,0.00,,---,0.00,VWS V12.08,2013-04-15 08:01:00,
2013-04-15 03:06:00,46.9,43.6,29.63,South,172,3.6,4.0,88,0.00,,---,0.00,VWS V12.08,2013-04-15 08:06:00,
2013-04-15 03:12:00,46.9,43.9,29.63,South,172,2.7,4.0,89,0.00,,---,0.00,VWS V12.08,2013-04-15 08:12:00,
2013-04-15 03:17:00,46.8,43.7,29.63,SSE,167,3.1,3.1,89,0.00,,---,0.00,VWS V12.08,2013-04-15 08:17:00,
2013-04-15 03:22:00,46.9,43.9,29.63,SW,219,3.1,4.0,89,0.00,,---,0.00,VWS V12.08,2013-04-15 08:22:00,
2013-04-15 03:27:00,47.1,44.3,29.66,SSW,209,2.7,5.4,90,0.00,,---,0.00,VWS V12.08,2013-04-15 08:27:00,
2013-04-15 03:32:00,47.3,44.5,29.66,SSW,196,4.9,4.9,90,0.00,,---,0.00,VWS V12.08,2013-04-15 08:32:00,
2013-04-15 03:35:00,47.3,44.8,29.66,SSW,200,4.0,5.4,91,0.00,,---,0.00,VWS V12.08,2013-04-15 08:35:00,
2013-04-15 03:40:00,47.5,45.0,29.66,SSW,198,4.0,5.4,91,0.00,,---,0.00,VWS V12.08,2013-04-15 08:40:00,
2013-04-15 03:45:00,47.7,45.5,29.66,South,183,4.9,5.4,92,0.00,,---,0.00,VWS V12.08,2013-04-15 08:45:00,
2013-04-15 03:50:00,47.8,45.6,29.66,SW,216,5.8,6.3,92,0.00,,---,0.00,VWS V12.08,2013-04-15 08:50:00,
2013-04-15 03:55:00,48.2,46.0,29.69,SSW,207,7.6,8.1,92,0.00,,---,0.00,VWS V12.08,2013-04-15 08:55:00,
2013-04-15 04:00:00,48.6,46.6,29.69,SSW,205,4.9,8.3,93,0.00,,---,0.00,VWS V12.08,2013-04-15 09:00:00,
2013-04-15 04:05:00,48.7,47.1,29.69,SW,220,5.8,8.3,94,0.00,,---,0.00,VWS V12.08,2013-04-15 09:05:00,
2013-04-15 04:10:00,48.9,47.3,29.69,SW,224,8.3,10.1,94,0.00,,---,0.00,VWS V12.08,2013-04-15 09:10:00,
2013-04-15 04:15:00,49.1,47.5,29.69,SW,229,8.3,11.9,94,0.00,,---,0.00,VWS V12.08,2013-04-15 09:15:00,
2013-04-15 04:20:00,49.3,47.6,29.69,SSW,209,10.1,10.5,94,0.00,,---,0.00,VWS V12.08,2013-04-15 09:20:00,
2013-04-15 04:25:00,49.1,47.7,29.72,SW,231,8.1,11.0,95,0.00,,---,0.00,VWS V12.08,2013-04-15 09:25:00,
2013-04-15 04:30:00,49.3,47.9,29.72,SW,219,6.3,11.0,95,0.00,,---,0.00,VWS V12.08,2013-04-15 09:30:00,
2013-04-15 04:35:00,49.5,48.4,29.72,SSW,206,6.3,8.1,96,0.00,,---,0.00,VWS V12.08,2013-04-15 09:35:00,
2013-04-15 04:40:00,49.5,48.7,29.69,SW,220,5.8,8.3,97,0.00,,---,0.00,VWS V12.08,2013-04-15 09:40:00,
2013-04-15 04:45:00,49.3,48.5,29.69,SSW,204,8.3,8.3,97,0.00,,---,0.00,VWS V12.08,2013-04-15 09:45:00,
2013-04-15 04:50:00,49.1,48.3,29.69,SW,229,8.7,8.7,97,0.00,,---,0.00,VWS V12.08,2013-04-15 09:50:00,
2013-04-15 04:55:00,48.9,48.1,29.69,SW,231,4.0,8.7,97,0.00,,---,0.00,VWS V12.08,2013-04-15 09:55:00,
2013-04-15 05:00:00,48.6,47.5,29.69,SW,234,4.9,8.7,96,0.00,,---,0.00,VWS V12.08,2013-04-15 10:00:00,
2013-04-15 05:05:00,48.4,47.0,29.69,SSW,205,4.0,5.8,95,0.00,,---,0.00,VWS V12.08,2013-04-15 10:05:00,
2013-04-15 05:10:00,48.0,46.7,29.69,SW,216,5.8,5.8,95,0.00,,---,0.00,VWS V12.08,2013-04-15 10:10:00,
2013-04-15 05:15:00,47.7,46.3,29.69,SSW,203,4.0,5.8,95,0.00,,---,0.00,VWS V12.08,2013-04-15 10:15:00,
2013-04-15 05:20:00,47.8,46.8,29.69,SW,224,5.4,6.3,96,0.00,,---,0.00,VWS V12.08,2013-04-15 10:20:00,
2013-04-15 05:25:00,47.5,46.1,29.69,SW,231,5.4,6.7,95,0.00,,---,0.00,VWS V12.08,2013-04-15 10:25:00,
2013-04-15 05:30:00,47.5,46.4,29.69,SW,222,5.4,7.6,96,0.00,,---,0.00,VWS V12.08,2013-04-15 10:30:00,
2013-04-15 05:35:00,47.3,46.2,29.69,SW,234,5.4,6.3,96,0.00,,---,0.00,VWS V12.08,2013-04-15 10:35:00,
2013-04-15 05:40:00,47.3,46.2,29.69,SW,235,5.8,6.7,96,0.00,,---,0.00,VWS V12.08,2013-04-15 10:40:00,
2013-04-15 05:46:00,47.3,46.2,29.69,SW,224,5.8,6.7,96,0.00,,---,0.00,VWS V12.08,2013-04-15 10:46:00,
2013-04-15 05:51:00,47.1,46.0,29.69,SW,216,4.9,6.3,96,0.00,,---,0.00,VWS V12.08,2013-04-15 10:51:00,
2013-04-15 05:56:00,46.9,45.9,29.72,SW,220,2.2,6.3,96,0.00,,---,0.00,VWS V12.08,2013-04-15 10:56:00,
2013-04-15 06:01:00,46.6,45.5,29.72,SW,219,4.0,6.3,96,0.00,,---,0.00,VWS V12.08,2013-04-15 11:01:00,
2013-04-15 06:06:00,46.4,45.3,29.72,SSW,206,2.7,4.0,96,0.00,,---,0.00,VWS V12.08,2013-04-15 11:06:00,
2013-04-15 06:12:00,46.4,45.3,29.69,SSW,203,4.0,5.8,96,0.00,,---,0.00,VWS V12.08,2013-04-15 11:12:00,
2013-04-15 06:17:00,46.6,45.8,29.69,SW,230,4.5,4.5,97,0.00,,---,0.00,VWS V12.08,2013-04-15 11:17:00,
2013-04-15 06:22:00,46.4,45.6,29.69,SW,216,3.6,4.9,97,0.00,,---,0.00,VWS V12.08,2013-04-15 11:22:00,
2013-04-15 06:27:00,46.2,45.4,29.69,SW,216,3.1,4.9,97,0.00,,---,0.00,VWS V12.08,2013-04-15 11:27:00,
2013-04-15 06:32:00,45.9,44.8,29.69,SSW,204,0.0,0.0,96,0.00,,---,0.00,VWS V12.08,2013-04-15 11:32:00,
2013-04-15 06:37:00,45.9,44.8,29.69,SSW,193,0.0,0.0,96,0.00,,---,0.00,VWS V12.08,2013-04-15 11:37:00,
2013-04-15 06:42:00,45.3,44.2,29.69,SE,141,0.0,0.0,96,0.00,,---,0.00,VWS V12.08,2013-04-15 11:42:00,
2013-04-15 06:48:00,45.0,43.9,29.69,SSE,147,0.0,0.0,96,0.00,,---,0.00,VWS V12.08,2013-04-15 11:48:00,
2013-04-15 06:53:00,44.8,43.4,29.72,SSE,147,0.0,0.0,95,0.00,,---,0.00,VWS V12.08,2013-04-15 11:53:00,
2013-04-15 06:59:00,45.0,43.6,29.72,SSE,147,0.0,0.0,95,0.00,,---,0.00,VWS V12.08,2013-04-15 11:59:00,
2013-04-15 07:04:00,45.0,43.9,29.72,SSE,152,0.0,0.0,96,0.00,,---,0.00,VWS V12.08,2013-04-15 12:04:00,
2013-04-15 07:09:00,44.8,43.4,29.72,SSE,162,0.0,0.0,95,0.00,,---,0.00,VWS V12.08,2013-04-15 12:09:00,
2013-04-15 07:14:00,45.1,43.8,29.72,SSE,162,0.0,0.0,95,0.00,,---,0.00,VWS V12.08,2013-04-15 12:14:00,
2013-04-15 07:19:00,45.9,45.1,29.72,SSE,157,0.0,0.0,97,0.00,,---,0.00,VWS V12.08,2013-04-15 12:19:00,
2013-04-15 07:24:00,46.2,45.4,29.72,SSE,157,0.0,0.0,97,0.00,,---,0.00,VWS V12.08,2013-04-15 12:24:00,
2013-04-15 07:30:00,46.8,46.0,29.72,SSW,213,0.0,0.0,97,0.00,,---,0.00,VWS V12.08,2013-04-15 12:30:00,
2013-04-15 07:35:00,47.1,46.6,29.72,South,190,0.0,0.0,98,0.00,,---,0.00,VWS V12.08,2013-04-15 12:35:00,
2013-04-15 07:40:00,46.9,46.4,29.72,South,186,0.0,4.9,98,0.00,,---,0.00,VWS V12.08,2013-04-15 12:40:00,
2013-04-15 07:45:00,47.5,47.2,29.72,SSW,202,2.7,4.9,99,0.00,,---,0.00,VWS V12.08,2013-04-15 12:45:00,
2013-04-15 07:51:00,48.0,48.0,29.72,SW,216,4.9,8.7,100,0.00,,---,0.00,VWS V12.08,2013-04-15 12:51:00,
2013-04-15 07:56:00,48.4,48.1,29.72,SW,220,5.8,8.7,99,0.00,,---,0.00,VWS V12.08,2013-04-15 12:56:00,
2013-04-15 08:01:00,48.7,48.5,29.72,SW,220,6.3,8.7,99,0.00,,---,0.00,VWS V12.08,2013-04-15 13:01:00,
2013-04-15 08:07:00,49.5,49.5,29.72,SW,223,8.1,8.7,100,0.00,,---,0.00,VWS V12.08,2013-04-15 13:07:00,
2013-04-15 08:12:00,49.8,49.8,29.72,South,187,4.9,8.7,100,0.00,,---,0.00,VWS V12.08,2013-04-15 13:12:00,
2013-04-15 08:17:00,50.4,50.4,29.72,SSW,210,3.6,4.0,100,0.00,,---,0.00,VWS V12.08,2013-04-15 13:17:00,
2013-04-15 08:23:00,51.4,50.9,29.72,SSW,196,7.6,7.6,98,0.00,,---,0.00,VWS V12.08,2013-04-15 13:23:00,
2013-04-15 08:28:00,51.1,48.0,29.72,SSW,208,3.1,8.3,89,0.00,,---,0.00,VWS V12.08,2013-04-15 13:28:00,
2013-04-15 08:33:00,52.0,46.7,29.72,SSW,207,5.4,8.3,82,0.00,,---,0.00,VWS V12.08,2013-04-15 13:33:00,
2013-04-15 08:38:00,52.2,44.1,29.72,SW,224,6.3,10.1,74,0.00,,---,0.00,VWS V12.08,2013-04-15 13:38:00,
2013-04-15 08:43:00,52.3,44.0,29.72,SW,218,6.3,10.1,73,0.00,,---,0.00,VWS V12.08,2013-04-15 13:43:00,
2013-04-15 08:48:00,52.7,44.3,29.72,SSW,206,5.8,6.3,73,0.00,,---,0.00,VWS V12.08,2013-04-15 13:48:00,
2013-04-15 08:53:00,53.1,45.0,29.72,SSW,205,5.8,8.1,74,0.00,,---,0.00,VWS V12.08,2013-04-15 13:53:00,
2013-04-15 08:58:00,54.1,45.7,29.72,SSW,201,8.7,10.5,73,0.00,,---,0.00,VWS V12.08,2013-04-15 13:58:00,
2013-04-15 09:03:00,54.5,40.5,29.72,SW,222,8.1,10.5,59,0.00,,---,0.00,VWS V12.08,2013-04-15 14:03:00,
2013-04-15 09:08:00,55.0,38.7,29.72,SSW,198,5.8,10.5,54,0.00,,---,0.00,VWS V12.08,2013-04-15 14:08:00,
2013-04-15 09:14:00,54.7,37.9,29.72,South,175,9.6,15.9,53,0.00,,---,0.00,VWS V12.08,2013-04-15 14:14:00,
2013-04-15 09:19:00,54.5,39.1,29.72,SSW,210,10.5,12.8,56,0.00,,---,0.00,VWS V12.08,2013-04-15 14:19:00,
2013-04-15 09:24:00,54.7,40.2,29.72,SW,219,12.3,13.2,58,0.00,,---,0.00,VWS V12.08,2013-04-15 14:24:00,
2013-04-15 09:29:00,55.4,42.2,29.72,SW,218,7.6,13.2,61,0.00,,---,0.00,VWS V12.08,2013-04-15 14:29:00,
2013-04-15 09:34:00,55.8,41.2,29.72,SSW,194,12.8,14.1,58,0.00,,---,0.00,VWS V12.08,2013-04-15 14:34:00,
2013-04-15 09:39:00,55.4,40.4,29.75,SW,231,13.2,17.4,57,0.00,,---,0.00,VWS V12.08,2013-04-15 14:39:00,
2013-04-15 09:45:00,55.4,40.9,29.75,SW,225,12.8,17.4,58,0.00,,---,0.00,VWS V12.08,2013-04-15 14:45:00,
2013-04-15 09:50:00,55.6,39.7,29.75,SW,214,8.7,15.4,55,0.00,,---,0.00,VWS V12.08,2013-04-15 14:50:00,
2013-04-15 09:56:00,55.8,39.8,29.75,SSW,206,15.0,15.4,55,0.00,,---,0.00,VWS V12.08,2013-04-15 14:56:00,
2013-04-15 10:01:00,55.6,37.8,29.75,SSW,203,14.5,15.9,51,0.00,,---,0.00,VWS V12.08,2013-04-15 15:01:00,
2013-04-15 10:06:00,56.3,39.4,29.75,South,173,10.5,15.4,53,0.00,,---,0.00,VWS V12.08,2013-04-15 15:06:00,
2013-04-15 10:11:00,57.0,38.1,29.72,SW,230,11.4,15.4,49,0.00,,---,0.00,VWS V12.08,2013-04-15 15:11:00,
2013-04-15 10:16:00,57.6,34.1,29.72,WSW,238,15.0,16.3,41,0.00,,---,0.00,VWS V12.08,2013-04-15 15:16:00,
2013-04-15 10:21:00,57.4,32.0,29.72,SW,229,12.8,15.9,38,0.00,,---,0.00,VWS V12.08,2013-04-15 15:21:00,
2013-04-15 10:26:00,57.2,27.6,29.75,SSW,203,11.0,19.7,32,0.00,,---,0.00,VWS V12.08,2013-04-15 15:26:00,
2013-04-15 10:31:00,56.8,27.3,29.75,South,191,13.2,19.7,32,0.00,,---,0.00,VWS V12.08,2013-04-15 15:31:00,
2013-04-15 10:37:00,57.0,28.2,29.75,SSW,204,12.8,18.8,33,0.00,,---,0.00,VWS V12.08,2013-04-15 15:37:00,
2013-04-15 10:42:00,57.7,28.9,29.75,SW,214,15.4,18.8,33,0.00,,---,0.00,VWS V12.08,2013-04-15 15:42:00,
2013-04-15 10:47:00,57.7,28.9,29.75,SW,233,13.2,18.8,33,0.00,,---,0.00,VWS V12.08,2013-04-15 15:47:00,
2013-04-15 10:52:00,58.1,28.4,29.75,SW,223,14.1,16.8,32,0.00,,---,0.00,VWS V12.08,2013-04-15 15:52:00,
2013-04-15 10:57:00,57.9,27.5,29.75,SW,218,12.8,16.8,31,0.00,,---,0.00,VWS V12.08,2013-04-15 15:57:00,
2013-04-15 11:02:00,57.6,24.7,29.75,SW,229,15.4,17.4,28,0.00,,---,0.00,VWS V12.08,2013-04-15 16:02:00,
2013-04-15 11:07:00,57.7,22.2,29.75,SW,227,17.9,27.1,25,0.00,,---,0.00,VWS V12.08,2013-04-15 16:07:00,
2013-04-15 11:12:00,58.3,25.3,29.75,SW,232,12.8,27.1,28,0.00,,---,0.00,VWS V12.08,2013-04-15 16:12:00,
2013-04-15 11:17:00,58.5,22.8,29.75,SW,223,18.3,19.2,25,0.00,,---,0.00,VWS V12.08,2013-04-15 16:17:00,
2013-04-15 11:22:00,59.4,23.6,29.75,SSW,211,17.4,25.7,25,0.00,,---,0.00,VWS V12.08,2013-04-15 16:22:00,
2013-04-15 11:27:00,59.5,23.7,29.75,SW,236,24.2,25.7,25,0.00,,---,0.00,VWS V12.08,2013-04-15 16:27:00,
2013-04-15 11:32:00,59.0,23.2,29.75,SSW,208,26.2,27.5,25,0.00,,---,0.00,VWS V12.08,2013-04-15 16:32:00,
2013-04-15 11:37:00,59.0,23.2,29.75,SW,223,26.6,28.0,25,0.00,,---,0.00,VWS V12.08,2013-04-15 16:37:00,
2013-04-15 11:43:00,59.2,23.4,29.75,SW,230,23.7,28.0,25,0.00,,---,0.00,VWS V12.08,2013-04-15 16:43:00,
2013-04-15 11:48:00,59.5,23.7,29.75,SSW,211,15.4,23.3,25,0.00,,---,0.00,VWS V12.08,2013-04-15 16:48:00,
2013-04-15 11:53:00,59.5,23.7,29.75,SW,234,18.8,25.1,25,0.00,,---,0.00,VWS V12.08,2013-04-15 16:53:00,
2013-04-15 11:58:00,60.1,24.2,29.75,SW,219,17.0,25.1,25,0.00,,---,0.00,VWS V12.08,2013-04-15 16:58:00,
2013-04-15 12:03:00,60.4,24.5,29.75,SW,232,19.2,23.7,25,0.00,,---,0.00,VWS V12.08,2013-04-15 17:03:00,
2013-04-15 12:08:00,59.7,23.9,29.75,SSW,212,19.7,32.4,25,0.00,,---,0.00,VWS V12.08,2013-04-15 17:08:00,
2013-04-15 12:13:00,59.7,23.9,29.75,SW,223,25.5,32.4,25,0.00,,---,0.00,VWS V12.08,2013-04-15 17:13:00,
2013-04-15 12:18:00,59.4,21.6,29.75,SW,233,23.7,28.0,23,0.00,,---,0.00,VWS V12.08,2013-04-15 17:18:00,
2013-04-15 12:21:00,59.2,23.4,29.75,SW,222,25.7,28.0,25,0.00,,---,0.00,VWS V12.08,2013-04-15 17:21:00,
2013-04-15 12:22:00,59.2,23.4,29.75,SW,223,15.4,28.0,25,0.00,,---,0.00,VWS V12.08,2013-04-15 17:22:00,
2013-04-15 12:25:00,58.8,23.1,29.75,SSW,212,23.7,28.0,25,0.00,,---,0.00,VWS V12.08,2013-04-15 17:25:00,
2013-04-15 12:30:00,59.2,21.4,29.75,South,189,20.1,28.0,23,0.00,,---,0.00,VWS V12.08,2013-04-15 17:30:00,
2013-04-15 12:36:00,59.4,23.6,29.75,SW,223,21.0,25.5,25,0.00,,---,0.00,VWS V12.08,2013-04-15 17:36:00,
2013-04-15 12:41:00,59.4,21.6,29.75,SW,233,23.3,28.0,23,0.00,,---,0.00,VWS V12.08,2013-04-15 17:41:00,
2013-04-15 12:46:00,59.0,21.3,29.75,SW,218,25.1,28.0,23,0.00,,---,0.00,VWS V12.08,2013-04-15 17:46:00,
2013-04-15 12:51:00,58.6,21.0,29.75,SW,223,26.2,26.2,23,0.00,,---,0.00,VWS V12.08,2013-04-15 17:51:00,
2013-04-15 12:56:00,58.5,22.8,29.75,SW,224,16.3,26.2,25,0.00,,---,0.00,VWS V12.08,2013-04-15 17:56:00,
2013-04-15 13:01:00,58.8,23.1,29.75,WSW,244,17.4,26.2,25,0.00,,---,0.00,VWS V12.08,2013-04-15 18:01:00,
2013-04-15 13:06:00,58.5,20.8,29.75,SW,227,23.7,23.7,23,0.00,,---,0.00,VWS V12.08,2013-04-15 18:06:00,
2013-04-15 13:11:00,58.5,20.8,29.78,SW,215,17.9,28.4,23,0.00,,---,0.00,VWS V12.08,2013-04-15 18:11:00,
2013-04-15 13:16:00,58.1,22.5,29.78,SW,234,19.7,28.4,25,0.00,,---,0.00,VWS V12.08,2013-04-15 18:16:00,
2013-04-15 13:21:00,57.9,22.3,29.78,SW,231,13.2,25.1,25,0.00,,---,0.00,VWS V12.08,2013-04-15 18:21:00,
2013-04-15 13:28:00,57.4,21.9,29.78,WSW,252,17.9,25.1,25,0.00,,---,0.00,VWS V12.08,2013-04-15 18:28:00,
2013-04-15 13:29:00,57.4,21.9,29.78,WSW,237,16.8,25.1,25,0.00,,---,0.00,VWS V12.08,2013-04-15 18:29:00,
2013-04-15 13:34:00,56.8,22.3,29.78,WSW,246,24.2,25.1,26,0.00,,---,0.00,VWS V12.08,2013-04-15 18:34:00,
2013-04-15 13:39:00,56.5,19.1,29.78,SW,230,19.7,26.6,23,0.00,,---,0.00,VWS V12.08,2013-04-15 18:39:00,
2013-04-15 13:44:00,56.7,22.2,29.78,WSW,245,15.0,26.6,26,0.00,,---,0.00,VWS V12.08,2013-04-15 18:44:00,
2013-04-15 13:49:00,56.1,18.9,29.78,SW,236,23.7,28.9,23,0.00,,---,0.00,VWS V12.08,2013-04-15 18:49:00,
2013-04-15 13:54:00,55.9,18.7,29.81,WSW,240,19.2,28.9,23,0.00,,---,0.00,VWS V12.08,2013-04-15 18:54:00,
2013-04-15 13:59:00,56.1,18.9,29.81,SW,234,21.0,28.9,23,0.00,,---,0.00,VWS V12.08,2013-04-15 18:59:00,
2013-04-15 14:04:00,55.9,18.7,29.81,WSW,246,18.3,18.3,23,0.00,,---,0.00,VWS V12.08,2013-04-15 19:04:00,
2013-04-15 14:09:00,55.6,18.4,29.81,WSW,246,16.8,21.5,23,0.00,,---,0.00,VWS V12.08,2013-04-15 19:09:00,
2013-04-15 14:14:00,55.0,18.9,29.81,SW,233,11.9,21.5,24,0.00,,---,0.00,VWS V12.08,2013-04-15 19:14:00,
2013-04-15 14:19:00,54.0,18.0,29.81,WSW,238,16.3,20.6,24,0.00,,---,0.00,VWS V12.08,2013-04-15 19:19:00,
2013-04-15 14:24:00,53.6,17.7,29.81,WSW,237,20.1,26.6,24,0.00,,---,0.00,VWS V12.08,2013-04-15 19:24:00,
2013-04-15 14:29:00,53.2,17.4,29.81,SW,230,13.2,26.6,24,0.00,,---,0.00,VWS V12.08,2013-04-15 19:29:00,
2013-04-15 14:34:00,52.9,19.8,29.81,SW,236,15.0,19.2,27,0.00,,---,0.00,VWS V12.08,2013-04-15 19:34:00,
2013-04-15 14:40:00,52.7,19.7,29.81,West,268,11.9,20.6,27,0.00,,---,0.00,VWS V12.08,2013-04-15 19:40:00,
2013-04-15 14:45:00,52.7,19.7,29.81,WSW,245,12.3,20.6,27,0.00,,---,0.00,VWS V12.08,2013-04-15 19:45:00,
2013-04-15 14:50:00,52.7,19.7,29.81,WSW,257,12.3,16.8,27,0.00,,---,0.00,VWS V12.08,2013-04-15 19:50:00,
2013-04-15 14:56:00,51.1,22.3,29.81,WNW,290,12.3,22.8,32,0.00,,---,0.00,VWS V12.08,2013-04-15 19:56:00,
2013-04-15 14:58:00,50.0,22.8,29.81,WNW,298,15.4,22.8,34,0.00,,---,0.00,VWS V12.08,2013-04-15 19:58:00,
2013-04-15 15:01:00,49.1,25.2,29.81,West,260,12.3,22.8,39,0.00,,---,0.00,VWS V12.08,2013-04-15 20:01:00,
2013-04-15 15:02:00,48.9,25.7,29.81,WNW,293,17.4,22.8,40,0.00,,---,0.00,VWS V12.08,2013-04-15 20:02:00,
2013-04-15 15:07:00,47.8,26.4,29.81,WSW,258,19.2,22.8,43,0.00,,---,0.00,VWS V12.08,2013-04-15 20:07:00,
2013-04-15 15:12:00,47.3,26.0,29.84,WNW,290,10.5,22.8,43,0.00,,---,0.00,VWS V12.08,2013-04-15 20:12:00,
2013-04-15 15:17:00,46.9,26.2,29.84,WSW,255,14.5,19.7,44,0.00,,---,0.00,VWS V12.08,2013-04-15 20:17:00,
2013-04-15 15:22:00,46.6,26.9,29.84,West,260,15.4,25.5,46,0.00,,---,0.00,VWS V12.08,2013-04-15 20:22:00,
2013-04-15 15:27:00,46.2,27.6,29.84,WSW,243,11.0,25.5,48,0.00,,---,0.00,VWS V12.08,2013-04-15 20:27:00,
2013-04-15 15:32:00,46.0,28.9,29.84,West,261,11.0,11.0,51,0.00,,---,0.00,VWS V12.08,2013-04-15 20:32:00,
2013-04-15 15:38:00,46.2,28.1,29.84,West,267,12.3,21.9,49,0.00,,---,0.00,VWS V12.08,2013-04-15 20:38:00,
2013-04-15 15:42:00,46.0,28.0,29.84,West,261,10.5,21.9,49,0.00,,---,0.00,VWS V12.08,2013-04-15 20:42:00,
2013-04-15 15:48:00,45.9,26.3,29.84,WSW,244,12.3,20.6,46,0.00,,---,0.00,VWS V12.08,2013-04-15 20:48:00,
2013-04-15 15:52:00,45.3,25.2,29.84,WSW,252,17.4,21.5,45,0.00,,---,0.00,VWS V12.08,2013-04-15 20:52:00,
2013-04-15 15:58:00,45.1,24.5,29.84,WSW,243,24.2,24.2,44,0.00,,---,0.00,VWS V12.08,2013-04-15 20:58:00,
2013-04-15 16:03:00,45.1,25.1,29.84,West,272,15.4,18.8,45,0.00,,---,0.00,VWS V12.08,2013-04-15 21:03:00,
2013-04-15 16:08:00,44.8,25.8,29.84,WSW,237,10.5,18.8,47,0.00,,---,0.00,VWS V12.08,2013-04-15 21:08:00,
2013-04-15 16:13:00,44.8,26.3,29.84,WSW,240,16.3,20.6,48,0.00,,---,0.00,VWS V12.08,2013-04-15 21:13:00,
2013-04-15 16:17:00,44.8,25.8,29.84,WSW,239,16.3,16.3,47,0.00,,---,0.00,VWS V12.08,2013-04-15 21:17:00,
2013-04-15 16:22:00,44.8,25.3,29.84,WSW,246,17.9,23.7,46,0.00,,---,0.00,VWS V12.08,2013-04-15 21:22:00,
2013-04-15 16:27:00,44.4,26.5,29.87,WSW,238,21.9,24.2,49,0.00,,---,0.00,VWS V12.08,2013-04-15 21:27:00,
2013-04-15 16:33:00,44.1,27.1,29.87,SW,230,17.4,17.4,51,0.00,,---,0.00,VWS V12.08,2013-04-15 21:33:00,
2013-04-15 16:38:00,43.9,27.4,29.87,SW,235,15.4,21.5,52,0.00,,---,0.00,VWS V12.08,2013-04-15 21:38:00,
2013-04-15 16:43:00,43.9,28.8,29.87,SSW,211,18.3,21.5,55,0.00,,---,0.00,VWS V12.08,2013-04-15 21:43:00,
2013-04-15 16:48:00,43.7,27.2,29.87,SW,234,13.2,16.8,52,0.00,,---,0.00,VWS V12.08,2013-04-15 21:48:00,
2013-04-15 16:53:00,43.5,28.9,29.87,SW,221,13.2,17.9,56,0.00,,---,0.00,VWS V12.08,2013-04-15 21:53:00,
2013-04-15 16:58:00,43.3,27.8,29.87,SW,231,17.0,21.0,54,0.00,,---,0.00,VWS V12.08,2013-04-15 21:58:00,
2013-04-15 17:03:00,43.3,27.8,29.87,SW,221,12.8,15.0,54,0.00,,---,0.00,VWS V12.08,2013-04-15 22:03:00,
2013-04-15 17:08:00,43.3,29.1,29.87,SW,222,18.3,18.8,57,0.00,,---,0.00,VWS V12.08,2013-04-15 22:08:00,
2013-04-15 17:13:00,43.3,29.1,29.87,SW,227,15.4,18.8,57,0.00,,---,0.00,VWS V12.08,2013-04-15 22:13:00,
2013-04-15 17:18:00,43.5,30.6,29.87,SW,234,9.6,11.0,60,0.00,,---,0.00,VWS V12.08,2013-04-15 22:18:00,
2013-04-15 17:23:00,43.3,30.0,29.87,WSW,238,10.5,15.4,59,0.00,,---,0.00,VWS V12.08,2013-04-15 22:23:00,
2013-04-15 17:28:00,43.2,28.5,29.87,SW,228,11.0,16.8,56,0.00,,---,0.00,VWS V12.08,2013-04-15 22:28:00,
2013-04-15 17:33:00,43.2,29.0,29.87,WSW,244,12.3,13.2,57,0.00,,---,0.00,VWS V12.08,2013-04-15 22:33:00,
2013-04-15 17:38:00,43.3,27.4,29.87,WSW,250,8.1,15.4,53,0.00,,---,0.00,VWS V12.08,2013-04-15 22:38:00,
2013-04-15 17:43:00,43.5,27.5,29.84,West,267,7.6,15.4,53,0.00,,---,0.00,VWS V12.08,2013-04-15 22:43:00,
2013-04-15 17:48:00,43.9,26.9,29.84,West,275,3.1,7.6,51,0.00,,---,0.00,VWS V12.08,2013-04-15 22:48:00,
2013-04-15 17:53:00,44.1,27.1,29.84,WNW,289,6.3,10.1,51,0.00,,---,0.00,VWS V12.08,2013-04-15 22:53:00,
2013-04-15 17:58:00,44.2,26.3,29.84,WSW,242,8.1,10.1,49,0.00,,---,0.00,VWS V12.08,2013-04-15 22:58:00,
2013-04-15 18:03:00,44.2,25.3,29.84,SW,229,8.3,12.8,47,0.00,,---,0.00,VWS V12.08,2013-04-15 23:03:00,
2013-04-15 18:08:00,44.4,25.0,29.84,SW,219,10.5,12.8,46,0.00,,---,0.00,VWS V12.08,2013-04-15 23:08:00,
2013-04-15 18:13:00,44.4,25.5,29.84,SW,230,8.3,12.8,47,0.00,,---,0.00,VWS V12.08,2013-04-15 23:13:00,
2013-04-15 18:18:00,44.2,25.8,29.84,SW,223,10.1,10.1,48,0.00,,---,0.00,VWS V12.08,2013-04-15 23:18:00,
2013-04-15 18:23:00,44.2,25.3,29.84,SW,234,5.8,12.3,47,0.00,,---,0.00,VWS V12.08,2013-04-15 23:23:00,
2013-04-15 18:28:00,44.1,24.6,29.84,WSW,239,7.6,12.3,46,0.00,,---,0.00,VWS V12.08,2013-04-15 23:28:00,
2013-04-15 18:33:00,44.2,26.8,29.84,WSW,238,8.7,8.7,50,0.00,,---,0.00,VWS V12.08,2013-04-15 23:33:00,
2013-04-15 18:38:00,44.1,27.1,29.84,WSW,237,7.6,8.7,51,0.00,,---,0.00,VWS V12.08,2013-04-15 23:38:00,
2013-04-15 18:43:00,44.1,25.6,29.84,SW,230,4.9,10.1,48,0.00,,---,0.00,VWS V12.08,2013-04-15 23:43:00,
2013-04-15 18:48:00,44.1,26.1,29.84,SW,225,5.8,8.7,49,0.00,,---,0.00,VWS V12.08,2013-04-15 23:48:00,
2013-04-15 18:53:00,44.1,25.6,29.84,SW,222,5.8,8.7,48,0.00,,---,0.00,VWS V12.08,2013-04-15 23:53:00,
2013-04-15 18:58:00,44.1,25.6,29.84,SW,235,5.8,8.7,48,0.00,,---,0.00,VWS V12.08,2013-04-15 23:58:00,
2013-04-15 19:03:00,44.1,25.6,29.84,SW,217,4.9,8.1,48,0.00,,---,0.00,VWS V12.08,2013-04-16 00:03:00,
2013-04-15 19:08:00,43.9,25.0,29.84,SSW,213,4.0,8.3,47,0.00,,---,0.00,VWS V12.08,2013-04-16 00:08:00,
2013-04-15 19:13:00,43.9,25.5,29.84,SW,223,5.4,8.3,48,0.00,,---,0.00,VWS V12.08,2013-04-16 00:13:00,
2013-04-15 19:18:00,43.7,24.8,29.84,SSW,206,5.8,8.7,47,0.00,,---,0.00,VWS V12.08,2013-04-16 00:18:00,
2013-04-15 19:23:00,43.5,25.6,29.84,SSW,197,5.8,8.7,49,0.00,,---,0.00,VWS V12.08,2013-04-16 00:23:00,
2013-04-15 19:28:00,43.3,26.0,29.84,SW,223,5.4,8.7,50,0.00,,---,0.00,VWS V12.08,2013-04-16 00:28:00,
2013-04-15 19:33:00,43.2,26.7,29.84,SW,226,8.1,8.3,52,0.00,,---,0.00,VWS V12.08,2013-04-16 00:33:00,
2013-04-15 19:38:00,43.2,27.2,29.84,SW,221,6.3,8.3,53,0.00,,---,0.00,VWS V12.08,2013-04-16 00:38:00,
2013-04-15 19:43:00,43.0,27.5,29.84,SW,226,6.3,8.3,54,0.00,,---,0.00,VWS V12.08,2013-04-16 00:43:00,
2013-04-15 19:48:00,43.0,27.0,29.84,SW,223,5.4,7.6,53,0.00,,---,0.00,VWS V12.08,2013-04-16 00:48:00,
2013-04-15 19:53:00,42.8,27.3,29.84,SW,228,5.4,7.6,54,0.00,,---,0.00,VWS V12.08,2013-04-16 00:53:00,
2013-04-15 19:58:00,42.8,26.9,29.87,SW,229,6.3,8.1,53,0.00,,---,0.00,VWS V12.08,2013-04-16 00:58:00,
2013-04-15 20:03:00,42.8,26.9,29.87,SW,230,5.4,8.3,53,0.00,,---,0.00,VWS V12.08,2013-04-16 01:03:00,
2013-04-15 20:08:00,42.8,27.3,29.87,SW,217,5.4,8.3,54,0.00,,---,0.00,VWS V12.08,2013-04-16 01:08:00,
2013-04-15 20:13:00,42.6,27.1,29.87,SSW,197,3.1,8.3,54,0.00,,---,0.00,VWS V12.08,2013-04-16 01:13:00,
2013-04-15 20:18:00,42.3,26.8,29.87,WSW,238,2.7,4.0,54,0.00,,---,0.00,VWS V12.08,2013-04-16 01:18:00,
2013-04-15 20:23:00,42.1,27.1,29.87,SW,226,2.7,5.4,55,0.00,,---,0.00,VWS V12.08,2013-04-16 01:23:00,
2013-04-15 20:28:00,41.7,26.8,29.87,SW,224,0.0,5.4,55,0.00,,---,0.00,VWS V12.08,2013-04-16 01:28:00,
2013-04-15 20:33:00,41.7,27.2,29.87,SW,219,2.7,4.9,56,0.00,,---,0.00,VWS V12.08,2013-04-16 01:33:00,
2013-04-15 20:38:00,41.9,27.8,29.87,SSW,203,4.0,5.4,57,0.00,,---,0.00,VWS V12.08,2013-04-16 01:38:00,
2013-04-15 20:43:00,42.1,27.5,29.87,SW,226,0.0,5.4,56,0.00,,---,0.00,VWS V12.08,2013-04-16 01:43:00,
2013-04-15 20:48:00,41.9,27.4,29.87,West,263,4.9,5.8,56,0.00,,---,0.00,VWS V12.08,2013-04-16 01:48:00,
2013-04-15 20:53:00,41.9,27.4,29.87,WSW,258,4.0,7.6,56,0.00,,---,0.00,VWS V12.08,2013-04-16 01:53:00,
2013-04-15 20:58:00,42.1,27.1,29.87,WSW,257,6.3,7.6,55,0.00,,---,0.00,VWS V12.08,2013-04-16 01:58:00,
2013-04-15 21:03:00,42.1,27.1,29.87,WSW,238,6.3,6.3,55,0.00,,---,0.00,VWS V12.08,2013-04-16 02:03:00,
2013-04-15 21:08:00,42.1,27.1,29.90,SW,220,7.6,8.7,55,0.00,,---,0.00,VWS V12.08,2013-04-16 02:08:00,
2013-04-15 21:13:00,42.1,27.1,29.90,WSW,239,5.8,9.6,55,0.00,,---,0.00,VWS V12.08,2013-04-16 02:13:00,
2013-04-15 21:18:00,42.1,27.5,29.90,SW,235,6.3,8.7,56,0.00,,---,0.00,VWS V12.08,2013-04-16 02:18:00,
2013-04-15 21:23:00,42.1,28.0,29.90,WSW,241,5.4,8.7,57,0.00,,---,0.00,VWS V12.08,2013-04-16 02:23:00,
2013-04-15 21:28:00,42.1,28.0,29.90,WSW,243,7.2,8.7,57,0.00,,---,0.00,VWS V12.08,2013-04-16 02:28:00,
2013-04-15 21:33:00,42.3,27.7,29.90,West,265,6.3,8.1,56,0.00,,---,0.00,VWS V12.08,2013-04-16 02:33:00,
2013-04-15 21:38:00,42.4,27.0,29.93,West,265,5.8,8.1,54,0.00,,---,0.00,VWS V12.08,2013-04-16 02:38:00,
2013-04-15 21:43:00,42.6,26.2,29.93,WSW,245,8.3,8.7,52,0.00,,---,0.00,VWS V12.08,2013-04-16 02:43:00,
2013-04-15 21:48:00,42.6,26.2,29.93,WSW,251,8.1,9.6,52,0.00,,---,0.00,VWS V12.08,2013-04-16 02:48:00,
2013-04-15 21:54:00,42.8,25.5,29.93,WSW,239,5.8,10.1,50,0.00,,---,0.00,VWS V12.08,2013-04-16 02:54:00,
2013-04-15 21:59:00,42.8,25.9,29.93,West,266,6.3,10.1,51,0.00,,---,0.00,VWS V12.08,2013-04-16 02:59:00,
2013-04-15 22:04:00,42.6,25.8,29.93,WSW,252,7.6,7.6,51,0.00,,---,0.00,VWS V12.08,2013-04-16 03:04:00,
2013-04-15 22:09:00,42.6,25.8,29.93,WSW,248,7.6,8.7,51,0.00,,---,0.00,VWS V12.08,2013-04-16 03:09:00,
2013-04-15 22:14:00,42.8,25.9,29.93,WSW,244,8.1,9.6,51,0.00,,---,0.00,VWS V12.08,2013-04-16 03:14:00,
2013-04-15 22:19:00,42.6,25.8,29.93,West,259,6.7,8.3,51,0.00,,---,0.00,VWS V12.08,2013-04-16 03:19:00,
2013-04-15 22:24:00,42.6,25.3,29.93,WSW,246,6.3,11.0,50,0.00,,---,0.00,VWS V12.08,2013-04-16 03:24:00,
2013-04-15 22:29:00,42.4,25.1,29.93,West,259,7.2,11.0,50,0.00,,---,0.00,VWS V12.08,2013-04-16 03:29:00,
2013-04-15 22:34:00,42.3,25.4,29.93,WSW,250,3.6,5.4,51,0.00,,---,0.00,VWS V12.08,2013-04-16 03:34:00,
2013-04-15 22:39:00,42.1,25.7,29.93,West,260,3.6,5.8,52,0.00,,---,0.00,VWS V12.08,2013-04-16 03:39:00,
2013-04-15 22:44:00,41.7,25.9,29.93,West,260,3.6,6.3,53,0.00,,---,0.00,VWS V12.08,2013-04-16 03:44:00,
2013-04-15 22:49:00,41.5,26.6,29.93,SW,235,6.3,6.3,55,0.00,,---,0.00,VWS V12.08,2013-04-16 03:49:00,
2013-04-15 22:54:00,41.5,27.5,29.93,WSW,257,3.6,6.3,57,0.00,,---,0.00,VWS V12.08,2013-04-16 03:54:00,
2013-04-15 22:59:00,41.5,27.5,29.93,WSW,251,4.0,6.3,57,0.00,,---,0.00,VWS V12.08,2013-04-16 03:59:00,
2013-04-15 23:00:00,41.5,27.5,29.93,WSW,256,4.0,6.3,57,0.00,,---,0.00,VWS V12.08,2013-04-16 04:00:00,
2013-04-15 23:05:00,41.4,27.3,29.93,WSW,252,3.6,4.9,57,0.00,,---,0.00,VWS V12.08,2013-04-16 04:05:00,
2013-04-15 23:10:00,41.4,27.3,29.96,WSW,240,3.1,5.4,57,0.00,,---,0.00,VWS V12.08,2013-04-16 04:10:00,
2013-04-15 23:15:00,41.2,27.1,29.96,SW,235,6.3,6.3,57,0.00,,---,0.00,VWS V12.08,2013-04-16 04:15:00,
2013-04-15 23:20:00,41.2,28.4,29.96,SW,235,6.3,8.3,60,0.00,,---,0.00,VWS V12.08,2013-04-16 04:20:00,
2013-04-15 23:25:00,41.4,28.1,29.96,WSW,249,3.6,8.3,59,0.00,,---,0.00,VWS V12.08,2013-04-16 04:25:00,
2013-04-15 23:30:00,41.4,28.1,29.96,WSW,252,3.6,8.3,59,0.00,,---,0.00,VWS V12.08,2013-04-16 04:30:00,
2013-04-15 23:35:00,41.2,27.5,29.96,West,267,4.0,5.4,58,0.00,,---,0.00,VWS V12.08,2013-04-16 04:35:00,
2013-04-15 23:40:00,41.2,26.7,29.96,SW,236,4.0,6.3,56,0.00,,---,0.00,VWS V12.08,2013-04-16 04:40:00,
2013-04-15 23:45:00,41.2,26.2,29.96,West,265,2.7,6.3,55,0.00,,---,0.00,VWS V12.08,2013-04-16 04:45:00,
2013-04-15 23:50:00,41.0,26.1,29.96,West,266,3.1,4.9,55,0.00,,---,0.00,VWS V12.08,2013-04-16 04:50:00,
2013-04-15 23:55:00,41.0,25.2,29.96,West,269,2.7,4.9,53,0.00,,---,0.00,VWS V12.08,2013-04-16 04:55:00,